Latest Weather Observations for McArthur River Mine

IDD60801

Issued at 6:31 pm CST Saturday 16 December 2017 (issued every 30 minutes, with the page automatically refreshed every 10 minutes)

About weather observations | Map of weather stations | Latest weather observations for NT | Other Formats
Station Details ID: 014704 Name: MCARTHUR RIVER MINE AIRPORT Lat: -16.44 Lon: 136.08 Height: 40.0 m
Data from the previous 72 hours. | See also: Recent months at McArthur River Mine
Date/Time
CST
Temp
°C
App
Temp
°C
Dew
Point
°C
Rel
Hum
%
Delta-T
°C
Wind Press
QNH
hPa
Press
MSL
hPa
Rain since
9am
mm
Dir  Spd
km/h
Gust
km/h
Spd
kts
Gust
kts
16/06:30pm 35.8 33.4 13.9 27 13.5 NE 19 26 10 14 1005.1 1004.8 0.2
16/06:00pm 36.5 34.3 14.5 27 13.7 NE 19 30 10 16 1004.9 1004.6 0.2
16/05:30pm 37.0 35.8 16.0 28 13.4 NNE 17 28 9 15 1004.6 1004.3 0.2
16/05:00pm 37.4 35.0 16.4 29 13.5 NE 24 35 13 19 1004.0 1003.7 0.2
16/04:30pm 39.1 37.0 13.5 22 15.9 NE 17 30 9 16 1003.8 1003.5 0.2
16/04:00pm 40.1 39.5 13.6 21 16.5 ENE 9 17 5 9 1003.9 1003.6 0.2
16/03:30pm 39.5 39.2 14.5 23 15.8 WNW 9 19 5 10 1004.0 1003.7 0.2
16/03:00pm 38.7 38.1 14.5 24 15.2 N 11 20 6 11 1004.4 1004.1 0.2
16/02:30pm 39.6 39.8 14.6 23 15.8 N 7 15 4 8 1005.1 1004.8 0.2
16/02:00pm 37.9 38.5 15.7 27 14.1 W 7 15 4 8 1005.6 1005.3 0.2
16/01:30pm 37.5 37.8 15.9 28 13.8 NNW 9 13 5 7 1006.3 1006.0 0.2
16/01:00pm 38.7 39.1 16.3 26 14.4 WSW 9 19 5 10 1006.8 1006.5 0.2
16/12:30pm 38.2 38.9 17.0 28 13.8 WNW 9 15 5 8 1007.5 1007.2 0.2
16/12:00pm 36.7 36.2 15.8 29 13.3 W 13 19 7 10 1008.2 1007.9 0.2
16/11:30am 35.5 36.5 19.4 38 10.7 NNW 13 20 7 11 1008.8 1008.5 0.2
16/11:00am 35.3 37.7 20.0 40 10.2 NNW 7 11 4 6 1009.4 1009.1 0.2
16/10:30am 33.3 37.1 22.4 52 7.5 NNW 6 11 3 6 1009.8 1009.5 0.2
16/10:00am 32.3 36.0 23.3 59 6.2 NNW 9 13 5 7 1010.1 1009.8 0.0
16/09:30am 31.5 35.1 23.1 61 5.8 WNW 9 15 5 8 1010.3 1010.0 0.0
16/09:00am 31.0 34.4 23.4 64 5.3 NNW 11 17 6 9 1010.7 1010.4 1.2
16/08:30am 30.7 33.1 23.6 66 4.9 NNW 17 20 9 11 1010.5 1010.2 1.2
16/08:00am 30.1 34.3 24.7 73 3.8 NNW 11 17 6 9 1010.4 1010.1 1.2
16/07:30am 28.4 32.9 24.6 80 2.7 N 9 11 5 6 1010.0 1009.7 1.2
16/07:00am 27.8 33.4 24.2 81 2.5 NNW 2 6 1 3 1010.1 1009.8 1.2
16/06:30am 26.9 33.0 24.4 86 1.7 CALM 0 0 0 0 1009.4 1009.1 1.2
16/06:00am 26.5 32.5 24.2 87 1.6 CALM 0 0 0 0 1008.8 1008.5 1.2
16/05:30am 26.6 31.3 23.9 85 1.9 N 6 7 3 4 1008.3 1008.0 1.2
16/05:00am 26.2 30.9 23.9 87 1.6 ENE 6 7 3 4 1008.0 1007.7 1.2
16/04:30am 25.7 30.0 23.7 89 1.4 ENE 7 7 4 4 1007.9 1007.6 1.2
16/04:00am 25.5 30.8 23.7 90 1.2 E 2 7 1 4 1007.6 1007.3 1.2
16/03:30am 25.5 31.2 23.7 90 1.2 CALM 0 0 0 0 1007.3 1007.0 1.2
16/03:00am 25.6 31.3 23.7 89 1.3 CALM 0 0 0 0 1007.3 1007.0 1.2
16/02:30am 25.8 31.5 23.7 88 1.4 CALM 0 0 0 0 1007.0 1006.7 1.2
16/02:00am 25.9 30.3 23.4 86 1.7 WSW 6 7 3 4 1007.0 1006.7 1.2
16/01:30am 26.2 30.5 23.3 84 2.0 SW 6 7 3 4 1007.1 1006.8 1.2
16/01:00am 26.3 30.3 22.8 81 2.4 WSW 6 7 3 4 1007.2 1006.9 1.2
16/12:30am 26.4 29.9 22.9 81 2.4 WSW 9 11 5 6 1007.4 1007.1 1.2
16/12:00am 27.3 32.4 22.7 76 3.1 CALM 0 0 0 0 1007.4 1007.1 1.2
 
Date/Time
CST
Temp
°C
App
Temp
°C
Dew
Point
°C
Rel
Hum
%
Delta-T
°C
Wind Press
QNH
hPa
Press
MSL
hPa
Rain since
9am
mm
Dir  Spd
km/h
Gust
km/h
Spd
kts
Gust
kts
15/11:30pm 27.6 31.2 22.3 73 3.6 NNE 7 9 4 5 1007.5 1007.2 1.2
15/11:00pm 28.1 31.4 22.6 72 3.7 NNE 9 13 5 7 1007.5 1007.2 1.2
15/10:30pm 27.4 31.6 23.4 79 2.7 NE 7 9 4 5 1007.6 1007.3 1.2
15/10:00pm 27.5 32.2 23.9 81 2.5 NNE 6 7 3 4 1007.6 1007.3 1.2
15/09:30pm 27.2 32.0 24.1 83 2.1 NNE 6 7 3 4 1007.4 1007.1 1.2
15/09:00pm 27.4 33.3 24.1 82 2.3 CALM 0 0 0 0 1007.0 1006.7 1.2
15/08:30pm 27.6 32.3 24.0 81 2.5 N 6 9 3 5 1006.5 1006.2 1.2
15/08:00pm 27.7 32.2 23.9 80 2.6 N 7 11 4 6 1006.3 1006.0 1.2
15/07:30pm 27.7 32.8 23.3 77 3.0 NNW 2 6 1 3 1006.1 1005.8 1.2
15/07:00pm 27.3 30.3 23.3 79 2.7 N 13 15 7 8 1005.8 1005.5 1.2
15/06:30pm 27.2 30.6 24.1 83 2.1 NNW 13 19 7 10 1006.0 1005.7 1.0
15/06:00pm 26.4 30.0 23.1 82 2.3 WNW 9 15 5 8 1006.4 1006.1 1.0
15/05:30pm 28.1 29.9 22.6 72 3.7 SSW 17 22 9 12 1006.1 1005.8 0.2
15/05:00pm 27.8 28.7 23.4 77 3.0 SSW 24 32 13 17 1005.7 1005.4 0.2
15/04:44pm 30.0 29.5 20.0 55 6.6 SSE 22 54 12 29 1005.1 1004.8 0.0
15/04:30pm 35.0 34.3 16.3 32 11.9 NE 15 24 8 13 1004.4 1004.1 0.0
15/04:00pm 34.9 32.6 17.6 35 11.2 NE 26 39 14 21 1003.9 1003.6 0.0
15/03:30pm 37.4 35.7 14.7 26 14.2 NNE 17 24 9 13 1004.1 1003.8 0.0
15/03:00pm 37.1 34.4 15.5 27 13.7 NE 24 35 13 19 1004.2 1003.9 0.0
15/02:58pm 36.9 34.1 15.4 28 13.6 NE 24 35 13 19 1004.2 1003.9 0.0
15/02:30pm 38.7 38.6 13.8 22 15.5 NNE 7 13 4 7 1004.3 1004.0 0.0
15/02:00pm 38.5 37.4 14.3 23 15.1 NW 13 20 7 11 1004.6 1004.3 0.0
15/01:30pm 38.4 37.2 12.9 22 15.7 SW 11 20 6 11 1005.2 1004.9 0.0
15/01:00pm 39.4 38.6 15.1 24 15.4 NNE 13 22 7 12 1005.6 1005.3 0.0
15/12:30pm 37.7 35.8 14.3 25 14.6 NNW 17 22 9 12 1006.0 1005.7 0.0
15/12:00pm 37.2 37.3 14.5 26 14.2 NW 7 17 4 9 1006.7 1006.4 0.0
15/11:30am 37.4 36.6 15.2 26 14.0 NNE 13 24 7 13 1007.2 1006.9 0.0
15/11:00am 36.2 36.5 15.9 30 12.9 W 9 15 5 8 1007.5 1007.2 0.0
15/10:30am 34.9 35.3 16.2 32 11.9 N 9 17 5 9 1008.0 1007.7 0.0
15/10:00am 34.7 35.9 19.9 42 9.9 N 13 26 7 14 1008.3 1008.0 0.0
15/09:30am 33.8 36.0 21.2 47 8.5 NNW 11 20 6 11 1008.7 1008.4 0.0
15/09:00am 32.4 33.9 21.3 52 7.5 NW 15 20 8 11 1008.7 1008.4 0.0
15/08:30am 32.1 34.8 22.8 58 6.4 NNW 13 26 7 14 1008.8 1008.5 0.0
15/08:00am 31.3 33.4 23.1 61 5.6 N 17 26 9 14 1008.7 1008.4 0.0
15/07:30am 30.0 32.5 22.4 63 5.2 N 13 20 7 11 1008.7 1008.4 0.0
15/07:00am 29.1 32.4 22.6 68 4.4 N 9 15 5 8 1008.8 1008.5 0.0
15/06:30am 28.2 31.8 22.4 71 3.9 NNE 7 11 4 6 1008.3 1008.0 0.0
15/06:00am 27.8 30.9 22.1 71 3.8 NNE 9 11 5 6 1007.8 1007.5 0.0
15/05:30am 27.6 30.9 21.9 71 3.8 N 7 11 4 6 1007.1 1006.8 0.0
15/05:00am 27.6 29.9 20.7 66 4.6 N 9 11 5 6 1006.4 1006.1 0.0
15/04:30am 27.5 29.6 19.0 59 5.5 ENE 6 7 3 4 1006.6 1006.3 0.0
15/04:00am 27.7 31.0 19.2 60 5.5 CALM 0 0 0 0 1006.6 1006.3 0.0
15/03:30am 27.4 30.5 18.7 59 5.6 CALM 0 0 0 0 1006.6 1006.3 0.0
15/03:00am 27.6 30.5 18.3 57 5.9 CALM 0 0 0 0 1006.5 1006.2 0.0
15/02:30am 27.7 29.9 18.4 57 6.0 WNW 4 7 2 4 1006.5 1006.2 0.0
15/02:00am 28.6 30.0 18.7 55 6.4 NNW 9 9 5 5 1006.6 1006.3 0.0
15/01:30am 28.6 30.3 18.1 53 6.7 NE 6 7 3 4 1007.2 1006.9 0.0
15/01:00am 29.2 31.9 17.7 50 7.3 CALM 0 6 0 3 1007.8 1007.5 0.0
15/12:30am 30.1 31.6 17.5 46 8.0 SSE 6 7 3 4 1008.5 1008.2 0.0
15/12:00am 30.5 30.9 17.2 44 8.4 SE 11 20 6 11 1008.9 1008.6 0.0
 
Date/Time
CST
Temp
°C
App
Temp
°C
Dew
Point
°C
Rel
Hum
%
Delta-T
°C
Wind Press
QNH
hPa
Press
MSL
hPa
Rain since
9am
mm
Dir  Spd
km/h
Gust
km/h
Spd
kts
Gust
kts
14/11:30pm 31.1 32.6 18.1 46 8.4 E 7 11 4 6 1009.0 1008.7 0.0
14/11:00pm 31.7 32.9 18.3 45 8.7 SSE 9 13 5 7 1009.5 1009.2 0.0
14/10:30pm 31.5 32.1 19.5 49 7.9 S 15 30 8 16 1009.2 1008.9 0.0
14/10:00pm 30.9 32.9 19.9 52 7.3 NNE 9 13 5 7 1007.5 1007.2 0.0
14/09:30pm 31.3 32.5 19.0 48 8.0 NNE 11 15 6 8 1007.0 1006.7 0.0
14/09:00pm 31.6 32.1 17.5 43 9.0 NNE 11 15 6 8 1006.4 1006.1 0.0
14/08:30pm 32.2 32.6 17.3 41 9.5 NNE 11 20 6 11 1006.2 1005.9 0.0
14/08:00pm 32.9 32.4 15.8 35 10.7 NNE 13 22 7 12 1005.9 1005.6 0.0
14/07:30pm 33.8 32.7 15.3 33 11.6 NNE 15 28 8 15 1005.9 1005.6 0.0
14/07:00pm 34.9 32.8 13.7 28 13.0 NNE 17 28 9 15 1005.3 1005.0 0.0
14/06:30pm 35.7 32.9 13.2 26 13.7 NE 20 32 11 17 1004.7 1004.4 0.0
14/06:00pm 36.9 34.4 13.6 24 14.4 NE 19 30 10 16 1004.1 1003.8 0.0
14/05:30pm 37.4 34.9 14.0 24 14.5 NNE 20 30 11 16 1003.7 1003.4 0.0
14/05:00pm 37.4 34.0 14.7 26 14.2 NNE 26 43 14 23 1003.3 1003.0 0.0
14/04:30pm 38.0 35.1 13.9 24 15.0 NE 22 35 12 19 1003.2 1002.9 0.0
14/04:00pm 39.1 35.9 12.0 20 16.4 E 20 35 11 19 1003.1 1002.8 0.0
14/03:30pm 41.4 39.0 8.5 14 19.2 ESE 11 20 6 11 1003.3 1003.0 0.0
14/03:00pm 42.0 38.6 9.0 14 19.5 E 17 28 9 15 1003.8 1003.5 0.0
14/02:30pm 40.3 37.7 7.7 14 18.7 E 11 20 6 11 1004.4 1004.1 0.0
14/02:00pm 41.0 37.4 8.2 14 19.0 SE 17 30 9 16 1004.7 1004.4 0.0
14/01:30pm 40.8 38.0 10.0 16 18.3 SE 15 32 8 17 1004.9 1004.6 0.0
14/01:00pm 39.6 36.6 9.1 16 17.8 E 15 28 8 15 1005.9 1005.6 0.0
14/12:30pm 39.4 36.2 9.8 17 17.4 ENE 17 32 9 17 1006.4 1006.1 0.0
14/12:00pm 38.3 37.0 11.4 20 16.2 NE 9 17 5 9 1006.7 1006.4 0.0
14/11:30am 37.7 37.2 13.7 24 14.9 NW 9 13 5 7 1007.2 1006.9 0.0
14/11:00am 36.8 36.2 14.7 26 13.8 WNW 11 17 6 9 1007.6 1007.3 0.0
14/10:30am 35.8 35.9 16.5 31 12.3 NNW 11 20 6 11 1007.8 1007.5 0.0
14/10:00am 34.1 34.0 16.9 36 11.0 NNW 13 19 7 10 1008.2 1007.9 0.0
14/09:30am 33.2 35.2 20.7 47 8.4 NNW 11 17 6 9 1008.5 1008.2 0.0
14/09:00am 32.0 34.0 21.5 53 7.1 NNW 13 20 7 11 1008.8 1008.5 0.0
14/08:30am 31.2 33.6 22.2 58 6.1 NW 13 17 7 9 1009.0 1008.7 0.0
14/08:00am 30.3 33.3 22.7 64 5.2 NNW 11 15 6 8 1009.2 1008.9 0.0
14/07:30am 29.3 32.3 23.3 70 4.1 N 13 19 7 10 1008.8 1008.5 0.0
14/07:00am 28.4 33.1 24.0 77 3.0 N 6 11 3 6 1008.6 1008.3 0.0
14/06:30am 27.8 32.7 24.4 82 2.4 NNE 6 9 3 5 1008.6 1008.3 0.0
14/06:00am 27.2 32.0 24.1 83 2.1 N 6 7 3 4 1008.4 1008.1 0.0
14/05:30am 27.4 32.2 24.1 82 2.3 N 6 9 3 5 1008.1 1007.8 0.0
14/05:00am 27.8 32.6 24.4 82 2.4 N 7 9 4 5 1007.9 1007.6 0.0
14/04:30am 27.9 32.6 24.3 81 2.5 N 7 11 4 6 1007.5 1007.2 0.0
14/04:00am 28.0 32.8 24.4 81 2.5 N 7 11 4 6 1007.5 1007.2 0.0
14/03:30am 28.1 33.1 24.5 81 2.5 NNW 6 9 3 5 1007.6 1007.3 0.0
14/03:00am 28.4 32.8 24.4 79 2.8 N 9 13 5 7 1007.7 1007.4 0.0
14/02:30am 28.6 33.0 24.4 78 2.9 N 9 15 5 8 1007.7 1007.4 0.0
14/02:00am 28.7 32.8 24.0 76 3.3 NNE 9 13 5 7 1007.6 1007.3 0.0
14/01:30am 28.9 32.9 23.8 74 3.5 N 9 13 5 7 1007.9 1007.6 0.0
14/01:00am 29.0 33.0 23.7 73 3.7 NNE 9 13 5 7 1008.0 1007.7 0.0
14/12:30am 29.2 33.1 23.6 72 3.9 NNE 9 13 5 7 1008.2 1007.9 0.0
14/12:00am 29.5 32.7 23.7 71 4.0 NNE 13 17 7 9 1008.6 1008.3 0.0
 
Date/Time
CST
Temp
°C
App
Temp
°C
Dew
Point
°C
Rel
Hum
%
Delta-T
°C
Wind Press
QNH
hPa
Press
MSL
hPa
Rain since
9am
mm
Dir  Spd
km/h
Gust
km/h
Spd
kts
Gust
kts
13/11:30pm 29.7 33.2 23.6 69 4.2 NNE 11 17 6 9 1008.7 1008.4 0.0
13/11:00pm 29.9 32.9 23.3 67 4.5 NNE 13 19 7 10 1008.5 1008.2 0.0
13/10:30pm 30.2 33.1 23.1 65 4.9 NNE 13 22 7 12 1008.1 1007.8 0.0
13/10:00pm 30.5 32.4 22.7 63 5.3 NNE 17 28 9 15 1008.0 1007.7 0.0
13/09:30pm 30.7 33.1 22.3 61 5.7 NNE 13 22 7 12 1007.7 1007.4 0.0
13/09:00pm 31.1 32.5 21.9 58 6.2 NNE 17 28 9 15 1007.4 1007.1 0.0
13/08:30pm 31.4 32.8 21.8 56 6.5 NNE 17 28 9 15 1007.1 1006.8 0.0
13/08:00pm 31.9 32.8 22.0 55 6.7 NNE 20 35 11 19 1006.6 1006.3 0.0
13/07:30pm 32.9 34.2 22.4 54 7.2 NNE 19 32 10 17 1006.6 1006.3 0.0
13/07:00pm 33.6 34.6 21.7 49 8.1 NNE 19 30 10 16 1005.9 1005.6 0.0

Other Formats:

Comma delimited format used in spreadsheet applications
http://www.bom.gov.au/fwo/IDD60801/IDD60801.94239.axf

JavaScript Object Notation format (JSON) in row-major order
http://www.bom.gov.au/fwo/IDD60801/IDD60801.94239.json